Maersk Rosario — V2BG2 — position and weather

sailwx.info

Track history (hours):
 
Tides and Currents Weather Stations Pressure Air Temp Water Temp Dewpoint Dewpoint Depression Visibility Wind Speed Wind Dir Waves Ship Positions

Maersk Rosario

Last reported at 2015-Mar-19 07:32 UTC. Time now 2015-Mar-27 22:12 UTC.
Position N 25°56' W 079°55'.
Warning: this ship's position is 8 days out of date.

Length 161.1 m; beam 25 m; draft 9.5 m.

Type: Ship (hazmat cat A). MMSI: 304814000.

Date/timePositionNaut miles runAvg speedWind from/ knotsBaromVisibWave heightAir tempDewpointWater temp
2015-Mar-19 07:32N 25°56' W 079°55'1313.4
2015-Mar-19 06:33N 26°06' W 080°05'2 1.8
2015-Mar-19 05:24N 26°04' W 080°07'0 0.0
2015-Mar-19 04:27N 26°04' W 080°07'0 0.0
2015-Mar-19 03:27N 26°04' W 080°07'0 0.0
2015-Mar-19 02:27N 26°04' W 080°07'0 0.0
2015-Mar-19 01:30N 26°04' W 080°07'0 0.0
2015-Mar-19 00:27N 26°04' W 080°07'0 0.0
2015-Mar-18 23:27N 26°04' W 080°07'0 0.0
2015-Mar-18 22:33N 26°04' W 080°07'0 0.0
2015-Mar-18 21:33N 26°04' W 080°07'0 0.0
2015-Mar-18 20:33N 26°04' W 080°07'0 0.0
2015-Mar-18 19:33N 26°04' W 080°07'0 0.0
2015-Mar-18 18:33N 26°04' W 080°07'0 0.0
2015-Mar-18 17:33N 26°04' W 080°07'0 0.0
2015-Mar-18 16:33N 26°04' W 080°07'0 0.0
2015-Mar-18 15:24N 26°04' W 080°07'0 0.0
2015-Mar-18 14:33N 26°04' W 080°07'4 4.4
2015-Mar-18 13:33N 26°06' W 080°03'5 4.8
2015-Mar-18 12:33N 26°06' W 079°57'8 7.6
2015-Mar-18 11:33N 26°02' W 079°50'4 4.4
2015-Mar-18 10:33N 26°00' W 079°45'2 1.9
2015-Mar-18 09:33N 25°59' W 079°47'3 2.2
2015-Mar-18 08:07N 25°56' W 079°48'2 2.5
2015-Mar-18 07:27N 25°54' W 079°49'  
Track history (hours):
 
Tides and Currents Weather Stations Pressure Air Temp Water Temp Dewpoint Dewpoint Depression Visibility Wind Speed Wind Dir Waves Ship Positions

Maersk Rosario

Last reported at 2015-Mar-19 07:32 UTC. Time now 2015-Mar-27 22:12 UTC.
Position N 25°56' W 079°55'.
Warning: this ship's position is 8 days out of date.

Length 161.1 m; beam 25 m; draft 9.5 m.

Type: Ship (hazmat cat A). MMSI: 304814000.

Date/timePositionNaut miles runAvg speedWind from/ knotsBaromVisibWave heightAir tempDewpointWater temp
2015-Mar-19 07:32N 25°56' W 079°55'1313.4
2015-Mar-19 06:33N 26°06' W 080°05'2 1.8
2015-Mar-19 05:24N 26°04' W 080°07'0 0.0
2015-Mar-19 04:27N 26°04' W 080°07'0 0.0
2015-Mar-19 03:27N 26°04' W 080°07'0 0.0
2015-Mar-19 02:27N 26°04' W 080°07'0 0.0
2015-Mar-19 01:30N 26°04' W 080°07'0 0.0
2015-Mar-19 00:27N 26°04' W 080°07'0 0.0
2015-Mar-18 23:27N 26°04' W 080°07'0 0.0
2015-Mar-18 22:33N 26°04' W 080°07'0 0.0
2015-Mar-18 21:33N 26°04' W 080°07'0 0.0
2015-Mar-18 20:33N 26°04' W 080°07'0 0.0
2015-Mar-18 19:33N 26°04' W 080°07'0 0.0
2015-Mar-18 18:33N 26°04' W 080°07'0 0.0
2015-Mar-18 17:33N 26°04' W 080°07'0 0.0
2015-Mar-18 16:33N 26°04' W 080°07'0 0.0
2015-Mar-18 15:24N 26°04' W 080°07'0 0.0
2015-Mar-18 14:33N 26°04' W 080°07'4 4.4
2015-Mar-18 13:33N 26°06' W 080°03'5 4.8
2015-Mar-18 12:33N 26°06' W 079°57'8 7.6
2015-Mar-18 11:33N 26°02' W 079°50'4 4.4
2015-Mar-18 10:33N 26°00' W 079°45'2 1.9
2015-Mar-18 09:33N 25°59' W 079°47'3 2.2
2015-Mar-18 08:07N 25°56' W 079°48'2 2.5
2015-Mar-18 07:27N 25°54' W 079°49'  

Dump ship's entire track history